Flight Track Log - Related Links

Times and Time Zones

All times are in EDT time to prevent confusion due to time zone crossing. See the AWI3778 flight status page for this flight to view local times or setup timezone preferences in your user account.

Time Position Orientation Groundspeed Altitude Reporting Facility
EDT Latitude Longitude Course Direction KTS MPH feet Rate Location/Type
Wed 02:04:00 PM 44.1733 -73.2574 196° South  Level FlightAware Approximate
Wed 02:05:00 PM 44.0758 -73.2964 196° South  Level FlightAware Approximate
Wed 02:05:27 PM 44.2464 -73.1964 197° South 298 343 9,300  Level Boston Center
Wed 02:06:00 PM 43.9783 -73.3354 196° South  Level FlightAware Approximate
Wed 02:06:27 PM 44.1522 -73.2358 197° South 293 337 11,400  Level Boston Center
Wed 02:07:00 PM 43.8807 -73.3738 195° South  Level FlightAware Approximate
Wed 02:07:27 PM 44.0625 -73.2722 196° South 314 361 13,700  Level Boston Center
Wed 02:08:00 PM 43.7827 -73.4100 195° South  Level FlightAware Approximate
Wed 02:08:27 PM 43.9831 -73.3144 201° Southwest 335 386 15,400  Level Boston Center
Wed 02:09:00 PM 43.6846 -73.4462 195° South  Level FlightAware Approximate
Wed 02:09:27 PM 43.9011 -73.3881 213° Southwest 349 402 17,300  Level Boston Center
Wed 02:10:27 PM 43.8169 -73.4672 214° Southwest 366 421 18,600 1,400 Climbing Boston Center
Wed 02:11:27 PM 43.7308 -73.5492 215° Southwest 379 436 20,100 1,600 Climbing Boston Center
Wed 02:12:27 PM 43.6361 -73.6364 214° Southwest 384 442 21,800 1,650 Climbing Boston Center
Wed 02:13:27 PM 43.5500 -73.7178 214° Southwest 384 442 23,400 1,700 Climbing Boston Center
Wed 02:14:27 PM 43.4636 -73.7961 213° Southwest 378 435 25,200 1,300 Climbing Boston Center
Wed 02:15:27 PM 43.3919 -73.8658 215° Southwest 371 427 26,000 400 Climbing Boston Center
Wed 02:16:27 PM 43.3075 -73.9381 212° Southwest 371 427 26,000  Level Boston Center
Wed 02:17:27 PM 43.2231 -74.0186 215° Southwest 371 427 26,000  Level Boston Center
Wed 02:18:27 PM 43.1408 -74.0933 214° Southwest 371 427 26,000  Level Boston Center
Wed 02:19:27 PM 43.0564 -74.1706 214° Southwest 371 427 26,000  Level Boston Center
Wed 02:20:27 PM 42.9717 -74.2478 214° Southwest 371 427 26,000  Level Boston Center
Wed 02:21:27 PM 42.8828 -74.3300 214° Southwest 378 435 26,000  Level Boston Center
Wed 02:22:27 PM 42.7875 -74.4147 213° Southwest 399 459 26,000  Level Boston Center
Wed 02:23:27 PM 42.6922 -74.4994 213° Southwest 407 468 26,000  Level Boston Center
Wed 02:24:27 PM 42.6011 -74.5839 214° Southwest 407 468 26,000  Level Boston Center
Wed 02:25:27 PM 42.5100 -74.6653 213° Southwest 402 463 26,000 -350 Level Boston Center
Wed 02:26:27 PM 42.4144 -74.7489 213° Southwest 407 468 25,300 -850 Descending Boston Center
Wed 02:27:27 PM 42.3231 -74.8297 213° Southwest 407 468 24,300 -1,000 Descending Boston Center
Wed 02:28:27 PM 42.2361 -74.9078 214° Southwest 396 456 23,300 -1,050 Descending Boston Center
Wed 02:29:27 PM 42.1489 -74.9856 213° Southwest 386 444 22,200 -1,330 Descending Boston Center
Wed 02:31:41 PM 41.9381 -75.1567 211° Southwest 385 443 19,000 -985 Descending New York Center
Wed 02:32:42 PM 41.8544 -75.2264 212° Southwest 378 435 19,000 -50 Level New York Center
Wed 02:33:42 PM 41.7750 -75.2878 210° Southwest 373 429 18,900 -1,140 Descending New York Center
Wed 02:34:43 PM 41.6889 -75.3597 212° Southwest 378 435 16,700 -2,678 Descending New York Center
Wed 02:35:43 PM 41.5964 -75.4339 211° Southwest 368 423 13,500 -2,331 Descending New York Center
Wed 02:36:44 PM 41.5169 -75.4975 211° Southwest 353 406 12,000 -763 Descending New York Center
Wed 02:37:41 PM 41.4394 -75.5583 210° Southwest 330 380 12,000  Level New York Center
Wed 02:38:41 PM 41.3686 -75.6142 211° Southwest 330 380 12,000  Level New York Center
Wed 02:39:43 PM 41.2953 -75.6697 210° Southwest 322 371 12,000  Level New York Center
Wed 02:40:41 PM 41.2178 -75.6861 189° South 267 307 12,000  Level New York Center
Wed 02:41:41 PM 41.1447 -75.6892 182° South 262 302 12,000 50 Level New York Center
Wed 02:42:42 PM 41.0697 -75.6892 180° South 262 302 12,100  Climbing New York Center
Wed 02:43:42 PM 41.0050 -75.6872 179° South 262 302 12,000 -50 Descending New York Center
Wed 02:44:42 PM 40.9281 -75.6872 180° South 273 314 12,000  Level New York Center
Wed 02:45:43 PM 40.8469 -75.6867 180° South 273 314 12,000  Level New York Center
Wed 02:46:41 PM 40.7717 -75.6869 180° South 273 314 12,000  Level New York Center
Wed 02:47:41 PM 40.7031 -75.6875 180° South 273 314 12,000  Level New York Center
Wed 02:48:42 PM 40.6281 -75.6875 180° South 273 314 12,000 -246 Level New York Center
Wed 02:49:43 PM 40.5569 -75.6442 155° Southeast 273 314 11,500 -744 Descending New York Center
Wed 02:50:43 PM 40.5164 -75.5647 124° Southeast 256 295 10,500 -763 Descending New York Center
Wed 02:51:41 PM 40.4781 -75.4831 122° Southeast 263 303 10,000 -252 Descending New York Center
Wed 02:52:42 PM 40.4303 -75.4253 137° Southeast 258 297 10,000  Level New York Center
Wed 02:53:42 PM 40.3589 -75.3822 155° Southeast 258 297 10,000  Level New York Center
Wed 02:54:41 PM 40.2958 -75.3428 154° Southeast 264 304 10,000  Level New York Center
Wed 02:55:41 PM 40.2286 -75.3056 157° South 259 298 10,000  Level New York Center
Wed 02:56:41 PM 40.1714 -75.2747 158° South 272 313 10,000  Level New York Center
Wed 02:57:42 PM 40.1222 -75.1956 129° Southeast 238 274 10,000 -50 Level New York Center
Wed 02:58:42 PM 40.1683 -75.1358 45° Northeast 203 234 9,900  Descending New York Center
Wed 02:59:41 PM 40.2456 -75.1897 332° Northwest 227 261 10,000  Climbing New York Center
Wed 03:00:41 PM 40.2994 -75.2531 318° Northwest 273 314 9,900 -50 Descending New York Center
Wed 03:01:41 PM 40.3058 -75.3514 275° West 274 315 9,900 50 Level New York Center
Wed 03:02:42 PM 40.2853 -75.4536 255° West 274 315 10,000 -50 Climbing New York Center
Wed 03:03:42 PM 40.2233 -75.4386 170° South 202 232 9,800 -958 Descending New York Center
Wed 03:04:41 PM 40.1556 -75.4150 165° South 233 268 8,100 -1,488 Descending New York Center
Wed 03:05:43 PM 40.1097 -75.3603 138° Southeast 243 280 6,800 -1,041 Descending New York Center
Wed 03:06:42 PM 40.0919 -75.2831 107° East 232 267 6,000 -393 Descending New York Center
Wed 03:07:45 PM 40.0833 -75.1833 96° East 200 230 6,000  Level Philadelphia TRACON
Wed 03:08:46 PM 40.0667 -75.1167 108° East 198 228 6,000  Level Philadelphia TRACON
Wed 03:09:45 PM 40.0500 -75.0500 108° East 212 244 6,000  Level Philadelphia TRACON
Wed 03:10:45 PM 40.0333 -74.9667 105° East 209 241 6,000  Level Philadelphia TRACON
Wed 03:11:51 PM 40.0333 -74.8833 90° East 202 232 6,000 -496 Level Philadelphia TRACON
Wed 03:12:46 PM 39.9833 -74.8500 153° Southeast 206 237 5,000 -1,043 Descending Philadelphia TRACON
Wed 03:13:46 PM 39.9500 -74.9000 229° Southwest 209 241 4,000 -905 Descending Philadelphia TRACON
Wed 03:14:52 PM 39.9333 -74.9833 255° West 188 216 3,100 -818 Descending Philadelphia TRACON

Login

Don't have an account? Register now (free) for customized features, flight alerts, and more!